sensor_id;sensor_type;location;lat;lon;timestamp;P1;durP1;ratioP1;P2;durP2;ratioP2
10633;SDS011;5365;51.640;8.106;2023-04-22T00:01:29;210.50;;;86.43;;
10633;SDS011;5365;51.640;8.106;2023-04-22T00:04:29;204.13;;;81.30;;
10633;SDS011;5365;51.640;8.106;2023-04-22T00:07:29;208.87;;;80.67;;
10633;SDS011;5365;51.640;8.106;2023-04-22T00:10:29;205.87;;;81.33;;
10633;SDS011;5365;51.640;8.106;2023-04-22T00:13:30;208.50;;;85.33;;
10633;SDS011;5365;51.640;8.106;2023-04-22T00:16:30;206.70;;;83.27;;
10633;SDS011;5365;51.640;8.106;2023-04-22T00:19:30;212.23;;;86.90;;
10633;SDS011;5365;51.640;8.106;2023-04-22T00:22:30;211.23;;;85.90;;
10633;SDS011;5365;51.640;8.106;2023-04-22T00:25:31;213.80;;;85.73;;
10633;SDS011;5365;51.640;8.106;2023-04-22T00:28:32;215.83;;;88.43;;
10633;SDS011;5365;51.640;8.106;2023-04-22T00:31:32;206.70;;;88.30;;
10633;SDS011;5365;51.640;8.106;2023-04-22T00:34:32;202.20;;;87.40;;
10633;SDS011;5365;51.640;8.106;2023-04-22T00:37:32;202.25;;;87.78;;
10633;SDS011;5365;51.640;8.106;2023-04-22T00:40:33;207.87;;;93.53;;
10633;SDS011;5365;51.640;8.106;2023-04-22T00:43:33;205.43;;;91.77;;
10633;SDS011;5365;51.640;8.106;2023-04-22T00:46:33;206.23;;;90.30;;
10633;SDS011;5365;51.640;8.106;2023-04-22T00:49:34;193.87;;;76.47;;
10633;SDS011;5365;51.640;8.106;2023-04-22T00:52:36;201.43;;;82.83;;
10633;SDS011;5365;51.640;8.106;2023-04-22T00:55:36;198.23;;;84.07;;
10633;SDS011;5365;51.640;8.106;2023-04-22T00:58:36;194.93;;;77.83;;
10633;SDS011;5365;51.640;8.106;2023-04-22T01:01:36;198.65;;;78.93;;
10633;SDS011;5365;51.640;8.106;2023-04-22T01:04:37;204.97;;;89.13;;
10633;SDS011;5365;51.640;8.106;2023-04-22T01:07:37;203.70;;;85.00;;
10633;SDS011;5365;51.640;8.106;2023-04-22T01:10:38;202.00;;;86.47;;
10633;SDS011;5365;51.640;8.106;2023-04-22T01:13:39;195.87;;;83.37;;
10633;SDS011;5365;51.640;8.106;2023-04-22T01:16:40;190.77;;;77.67;;
10633;SDS011;5365;51.640;8.106;2023-04-22T01:19:42;204.10;;;89.53;;
10633;SDS011;5365;51.640;8.106;2023-04-22T01:22:43;202.40;;;85.73;;
10633;SDS011;5365;51.640;8.106;2023-04-22T01:25:44;200.30;;;89.17;;
10633;SDS011;5365;51.640;8.106;2023-04-22T01:28:44;203.03;;;88.47;;
10633;SDS011;5365;51.640;8.106;2023-04-22T01:31:45;199.03;;;85.93;;
10633;SDS011;5365;51.640;8.106;2023-04-22T01:34:45;200.77;;;86.90;;
10633;SDS011;5365;51.640;8.106;2023-04-22T01:37:45;193.27;;;78.13;;
10633;SDS011;5365;51.640;8.106;2023-04-22T01:40:45;200.67;;;82.83;;
10633;SDS011;5365;51.640;8.106;2023-04-22T01:43:45;199.87;;;86.07;;
10633;SDS011;5365;51.640;8.106;2023-04-22T01:46:46;198.43;;;84.83;;
10633;SDS011;5365;51.640;8.106;2023-04-22T01:49:46;201.10;;;85.07;;
10633;SDS011;5365;51.640;8.106;2023-04-22T01:52:46;201.73;;;89.40;;
10633;SDS011;5365;51.640;8.106;2023-04-22T01:55:46;201.63;;;88.97;;
10633;SDS011;5365;51.640;8.106;2023-04-22T01:58:47;201.83;;;87.33;;
10633;SDS011;5365;51.640;8.106;2023-04-22T02:01:47;200.87;;;84.47;;
10633;SDS011;5365;51.640;8.106;2023-04-22T02:04:47;194.73;;;82.60;;
10633;SDS011;5365;51.640;8.106;2023-04-22T02:07:50;185.27;;;74.77;;
10633;SDS011;5365;51.640;8.106;2023-04-22T02:10:51;196.90;;;81.10;;
10633;SDS011;5365;51.640;8.106;2023-04-22T02:13:51;198.00;;;84.47;;
10633;SDS011;5365;51.640;8.106;2023-04-22T02:16:51;201.00;;;85.70;;
10633;SDS011;5365;51.640;8.106;2023-04-22T02:19:51;193.63;;;81.77;;
10633;SDS011;5365;51.640;8.106;2023-04-22T02:22:52;196.03;;;79.17;;
10633;SDS011;5365;51.640;8.106;2023-04-22T02:25:52;192.63;;;79.03;;
10633;SDS011;5365;51.640;8.106;2023-04-22T02:28:53;193.37;;;78.43;;
10633;SDS011;5365;51.640;8.106;2023-04-22T02:31:53;194.23;;;79.07;;
10633;SDS011;5365;51.640;8.106;2023-04-22T02:34:53;189.57;;;72.43;;
10633;SDS011;5365;51.640;8.106;2023-04-22T02:37:54;200.70;;;86.33;;
10633;SDS011;5365;51.640;8.106;2023-04-22T02:40:54;197.40;;;76.87;;
10633;SDS011;5365;51.640;8.106;2023-04-22T02:43:54;192.57;;;74.43;;
10633;SDS011;5365;51.640;8.106;2023-04-22T02:46:54;199.73;;;83.67;;
10633;SDS011;5365;51.640;8.106;2023-04-22T02:49:55;194.50;;;77.47;;
10633;SDS011;5365;51.640;8.106;2023-04-22T02:52:55;199.47;;;81.40;;
10633;SDS011;5365;51.640;8.106;2023-04-22T02:55:55;200.00;;;85.37;;
10633;SDS011;5365;51.640;8.106;2023-04-22T02:58:57;199.80;;;81.20;;
10633;SDS011;5365;51.640;8.106;2023-04-22T03:01:57;201.33;;;90.67;;
10633;SDS011;5365;51.640;8.106;2023-04-22T03:04:57;201.73;;;87.33;;
10633;SDS011;5365;51.640;8.106;2023-04-22T03:07:57;200.23;;;81.53;;
10633;SDS011;5365;51.640;8.106;2023-04-22T03:10:58;201.33;;;84.60;;
10633;SDS011;5365;51.640;8.106;2023-04-22T03:13:58;205.03;;;90.37;;
10633;SDS011;5365;51.640;8.106;2023-04-22T03:16:58;194.33;;;76.60;;
10633;SDS011;5365;51.640;8.106;2023-04-22T03:19:58;197.27;;;81.87;;
10633;SDS011;5365;51.640;8.106;2023-04-22T03:22:58;192.37;;;77.17;;
10633;SDS011;5365;51.640;8.106;2023-04-22T03:25:58;195.37;;;75.43;;
10633;SDS011;5365;51.640;8.106;2023-04-22T03:28:59;190.60;;;74.07;;
10633;SDS011;5365;51.640;8.106;2023-04-22T03:31:59;195.47;;;79.97;;
10633;SDS011;5365;51.640;8.106;2023-04-22T03:34:59;189.77;;;72.10;;
10633;SDS011;5365;51.640;8.106;2023-04-22T03:38:00;181.23;;;65.97;;
10633;SDS011;5365;51.640;8.106;2023-04-22T03:41:00;196.97;;;76.83;;
10633;SDS011;5365;51.640;8.106;2023-04-22T03:44:00;197.33;;;82.30;;
10633;SDS011;5365;51.640;8.106;2023-04-22T03:47:00;195.33;;;79.77;;
10633;SDS011;5365;51.640;8.106;2023-04-22T03:50:00;199.13;;;83.13;;
10633;SDS011;5365;51.640;8.106;2023-04-22T03:53:01;198.73;;;84.17;;
10633;SDS011;5365;51.640;8.106;2023-04-22T03:56:01;193.57;;;80.27;;
10633;SDS011;5365;51.640;8.106;2023-04-22T03:59:01;189.37;;;75.20;;
10633;SDS011;5365;51.640;8.106;2023-04-22T04:02:01;198.53;;;87.00;;
10633;SDS011;5365;51.640;8.106;2023-04-22T04:05:01;206.10;;;89.10;;
10633;SDS011;5365;51.640;8.106;2023-04-22T04:08:02;199.07;;;80.90;;
10633;SDS011;5365;51.640;8.106;2023-04-22T04:11:02;202.53;;;86.67;;
10633;SDS011;5365;51.640;8.106;2023-04-22T04:14:02;189.90;;;76.03;;
10633;SDS011;5365;51.640;8.106;2023-04-22T04:17:02;196.37;;;82.30;;
10633;SDS011;5365;51.640;8.106;2023-04-22T04:20:03;199.40;;;79.77;;
10633;SDS011;5365;51.640;8.106;2023-04-22T04:23:03;199.27;;;83.67;;
10633;SDS011;5365;51.640;8.106;2023-04-22T04:26:03;199.57;;;81.37;;
10633;SDS011;5365;51.640;8.106;2023-04-22T04:29:04;200.37;;;79.13;;
10633;SDS011;5365;51.640;8.106;2023-04-22T04:32:05;196.20;;;78.73;;
10633;SDS011;5365;51.640;8.106;2023-04-22T04:35:07;196.10;;;75.03;;
10633;SDS011;5365;51.640;8.106;2023-04-22T04:38:07;198.33;;;81.83;;
10633;SDS011;5365;51.640;8.106;2023-04-22T04:41:08;199.13;;;85.97;;
10633;SDS011;5365;51.640;8.106;2023-04-22T04:44:08;194.13;;;76.53;;
10633;SDS011;5365;51.640;8.106;2023-04-22T04:47:09;193.47;;;79.77;;
10633;SDS011;5365;51.640;8.106;2023-04-22T04:50:12;197.43;;;80.87;;
10633;SDS011;5365;51.640;8.106;2023-04-22T04:53:12;192.23;;;74.97;;
10633;SDS011;5365;51.640;8.106;2023-04-22T04:56:12;196.53;;;79.10;;
10633;SDS011;5365;51.640;8.106;2023-04-22T04:59:13;197.33;;;77.80;;
10633;SDS011;5365;51.640;8.106;2023-04-22T05:02:13;198.57;;;80.77;;
10633;SDS011;5365;51.640;8.106;2023-04-22T05:05:13;199.20;;;80.07;;
10633;SDS011;5365;51.640;8.106;2023-04-22T05:08:13;191.60;;;75.73;;
10633;SDS011;5365;51.640;8.106;2023-04-22T05:11:14;194.17;;;74.97;;
10633;SDS011;5365;51.640;8.106;2023-04-22T05:14:14;196.80;;;78.97;;
10633;SDS011;5365;51.640;8.106;2023-04-22T05:17:14;195.87;;;82.30;;
10633;SDS011;5365;51.640;8.106;2023-04-22T05:20:14;192.50;;;75.90;;
10633;SDS011;5365;51.640;8.106;2023-04-22T05:23:14;199.80;;;83.63;;
10633;SDS011;5365;51.640;8.106;2023-04-22T05:26:15;196.23;;;80.40;;
10633;SDS011;5365;51.640;8.106;2023-04-22T05:29:15;191.10;;;74.03;;
10633;SDS011;5365;51.640;8.106;2023-04-22T05:32:16;196.80;;;79.10;;
10633;SDS011;5365;51.640;8.106;2023-04-22T05:35:16;197.57;;;83.30;;
10633;SDS011;5365;51.640;8.106;2023-04-22T05:38:16;193.03;;;77.60;;
10633;SDS011;5365;51.640;8.106;2023-04-22T05:41:16;197.93;;;85.03;;
10633;SDS011;5365;51.640;8.106;2023-04-22T05:44:16;198.97;;;80.63;;
10633;SDS011;5365;51.640;8.106;2023-04-22T05:47:16;193.50;;;77.87;;
10633;SDS011;5365;51.640;8.106;2023-04-22T05:50:17;198.40;;;85.07;;
10633;SDS011;5365;51.640;8.106;2023-04-22T05:53:17;195.40;;;81.17;;
10633;SDS011;5365;51.640;8.106;2023-04-22T05:56:17;196.30;;;80.07;;
10633;SDS011;5365;51.640;8.106;2023-04-22T05:59:18;197.97;;;86.93;;
10633;SDS011;5365;51.640;8.106;2023-04-22T06:02:18;198.37;;;84.27;;
10633;SDS011;5365;51.640;8.106;2023-04-22T06:05:18;199.63;;;81.57;;
10633;SDS011;5365;51.640;8.106;2023-04-22T06:08:18;198.57;;;83.73;;
10633;SDS011;5365;51.640;8.106;2023-04-22T06:11:19;197.80;;;85.77;;
10633;SDS011;5365;51.640;8.106;2023-04-22T06:14:19;197.93;;;82.97;;
10633;SDS011;5365;51.640;8.106;2023-04-22T06:17:19;198.10;;;84.07;;
10633;SDS011;5365;51.640;8.106;2023-04-22T06:20:20;197.07;;;80.93;;
10633;SDS011;5365;51.640;8.106;2023-04-22T06:23:20;197.00;;;84.33;;
10633;SDS011;5365;51.640;8.106;2023-04-22T06:26:20;197.10;;;80.37;;
10633;SDS011;5365;51.640;8.106;2023-04-22T06:29:20;200.37;;;83.63;;
10633;SDS011;5365;51.640;8.106;2023-04-22T06:32:20;196.55;;;83.35;;
10633;SDS011;5365;51.640;8.106;2023-04-22T06:35:21;199.03;;;84.97;;
10633;SDS011;5365;51.640;8.106;2023-04-22T06:38:21;196.23;;;79.30;;
10633;SDS011;5365;51.640;8.106;2023-04-22T06:41:21;198.23;;;81.40;;
10633;SDS011;5365;51.640;8.106;2023-04-22T06:44:22;200.63;;;82.70;;
10633;SDS011;5365;51.640;8.106;2023-04-22T06:47:24;199.30;;;86.03;;
10633;SDS011;5365;51.640;8.106;2023-04-22T06:50:24;203.47;;;90.80;;
10633;SDS011;5365;51.640;8.106;2023-04-22T06:53:24;203.63;;;94.93;;
10633;SDS011;5365;51.640;8.106;2023-04-22T06:56:25;200.82;;;87.40;;
10633;SDS011;5365;51.640;8.106;2023-04-22T06:59:25;205.37;;;97.27;;
10633;SDS011;5365;51.640;8.106;2023-04-22T07:02:25;198.80;;;81.50;;
10633;SDS011;5365;51.640;8.106;2023-04-22T07:05:25;202.60;;;88.67;;
10633;SDS011;5365;51.640;8.106;2023-04-22T07:08:26;202.20;;;87.03;;
10633;SDS011;5365;51.640;8.106;2023-04-22T07:11:26;201.80;;;92.07;;
10633;SDS011;5365;51.640;8.106;2023-04-22T07:14:26;202.50;;;88.63;;
10633;SDS011;5365;51.640;8.106;2023-04-22T07:17:26;204.77;;;91.13;;
10633;SDS011;5365;51.640;8.106;2023-04-22T07:20:27;206.67;;;99.43;;
10633;SDS011;5365;51.640;8.106;2023-04-22T07:23:27;208.80;;;97.40;;
10633;SDS011;5365;51.640;8.106;2023-04-22T07:26:27;211.65;;;100.40;;
10633;SDS011;5365;51.640;8.106;2023-04-22T07:29:27;207.63;;;94.67;;
10633;SDS011;5365;51.640;8.106;2023-04-22T07:32:28;211.93;;;106.40;;
10633;SDS011;5365;51.640;8.106;2023-04-22T07:35:28;206.03;;;96.63;;
10633;SDS011;5365;51.640;8.106;2023-04-22T07:38:28;206.27;;;97.87;;
10633;SDS011;5365;51.640;8.106;2023-04-22T07:41:29;203.47;;;90.83;;
10633;SDS011;5365;51.640;8.106;2023-04-22T07:44:29;203.47;;;97.53;;
10633;SDS011;5365;51.640;8.106;2023-04-22T07:47:30;205.00;;;94.43;;
10633;SDS011;5365;51.640;8.106;2023-04-22T07:50:30;199.93;;;92.87;;
10633;SDS011;5365;51.640;8.106;2023-04-22T07:53:30;202.77;;;92.47;;
10633;SDS011;5365;51.640;8.106;2023-04-22T07:56:30;201.13;;;92.73;;
10633;SDS011;5365;51.640;8.106;2023-04-22T07:59:30;199.40;;;89.60;;
10633;SDS011;5365;51.640;8.106;2023-04-22T08:02:31;198.30;;;86.50;;
10633;SDS011;5365;51.640;8.106;2023-04-22T08:05:31;196.67;;;87.73;;
10633;SDS011;5365;51.640;8.106;2023-04-22T08:08:31;199.37;;;91.43;;
10633;SDS011;5365;51.640;8.106;2023-04-22T08:11:31;197.83;;;89.87;;
10633;SDS011;5365;51.640;8.106;2023-04-22T08:14:32;201.60;;;96.27;;
10633;SDS011;5365;51.640;8.106;2023-04-22T08:17:32;200.80;;;95.03;;
10633;SDS011;5365;51.640;8.106;2023-04-22T08:20:32;201.37;;;96.40;;
10633;SDS011;5365;51.640;8.106;2023-04-22T08:23:32;200.70;;;96.97;;
10633;SDS011;5365;51.640;8.106;2023-04-22T08:26:32;196.30;;;88.93;;
10633;SDS011;5365;51.640;8.106;2023-04-22T08:29:33;200.00;;;92.73;;
10633;SDS011;5365;51.640;8.106;2023-04-22T08:32:33;197.50;;;94.53;;
10633;SDS011;5365;51.640;8.106;2023-04-22T08:35:34;197.47;;;90.27;;
10633;SDS011;5365;51.640;8.106;2023-04-22T08:38:34;200.87;;;99.47;;
10633;SDS011;5365;51.640;8.106;2023-04-22T08:41:34;199.50;;;96.03;;
10633;SDS011;5365;51.640;8.106;2023-04-22T08:44:36;201.63;;;98.87;;
10633;SDS011;5365;51.640;8.106;2023-04-22T08:47:36;203.90;;;102.33;;
10633;SDS011;5365;51.640;8.106;2023-04-22T08:50:38;198.93;;;94.00;;
10633;SDS011;5365;51.640;8.106;2023-04-22T08:53:38;204.57;;;101.87;;
10633;SDS011;5365;51.640;8.106;2023-04-22T08:56:39;204.30;;;109.47;;
10633;SDS011;5365;51.640;8.106;2023-04-22T08:59:40;199.17;;;104.63;;
10633;SDS011;5365;51.640;8.106;2023-04-22T09:02:40;203.20;;;107.77;;
10633;SDS011;5365;51.640;8.106;2023-04-22T09:05:45;203.00;;;114.57;;
10633;SDS011;5365;51.640;8.106;2023-04-22T09:08:47;200.83;;;114.73;;
10633;SDS011;5365;51.640;8.106;2023-04-22T09:11:47;205.73;;;125.87;;
10633;SDS011;5365;51.640;8.106;2023-04-22T09:14:47;207.70;;;132.33;;
10633;SDS011;5365;51.640;8.106;2023-04-22T09:17:49;208.00;;;137.80;;
10633;SDS011;5365;51.640;8.106;2023-04-22T09:20:53;209.87;;;140.90;;
10633;SDS011;5365;51.640;8.106;2023-04-22T09:23:54;213.27;;;147.90;;
10633;SDS011;5365;51.640;8.106;2023-04-22T09:26:54;209.87;;;141.43;;
10633;SDS011;5365;51.640;8.106;2023-04-22T09:29:56;211.53;;;149.37;;
10633;SDS011;5365;51.640;8.106;2023-04-22T09:32:57;211.83;;;148.03;;
10633;SDS011;5365;51.640;8.106;2023-04-22T09:35:58;210.63;;;146.10;;
10633;SDS011;5365;51.640;8.106;2023-04-22T09:39:00;212.53;;;153.13;;
10633;SDS011;5365;51.640;8.106;2023-04-22T09:42:02;210.10;;;145.17;;
10633;SDS011;5365;51.640;8.106;2023-04-22T09:45:03;213.93;;;155.57;;
10633;SDS011;5365;51.640;8.106;2023-04-22T09:48:10;216.70;;;172.53;;
10633;SDS011;5365;51.640;8.106;2023-04-22T09:51:17;214.53;;;164.83;;
10633;SDS011;5365;51.640;8.106;2023-04-22T09:54:17;214.03;;;158.60;;
10633;SDS011;5365;51.640;8.106;2023-04-22T09:57:18;214.90;;;167.13;;
10633;SDS011;5365;51.640;8.106;2023-04-22T10:00:18;214.07;;;162.13;;
10633;SDS011;5365;51.640;8.106;2023-04-22T10:03:19;214.00;;;159.87;;
10633;SDS011;5365;51.640;8.106;2023-04-22T10:06:19;211.77;;;152.47;;
10633;SDS011;5365;51.640;8.106;2023-04-22T10:09:21;216.43;;;172.07;;
10633;SDS011;5365;51.640;8.106;2023-04-22T10:12:21;212.52;;;161.15;;
10633;SDS011;5365;51.640;8.106;2023-04-22T10:15:22;215.23;;;169.50;;
10633;SDS011;5365;51.640;8.106;2023-04-22T10:18:26;214.37;;;163.17;;
10633;SDS011;5365;51.640;8.106;2023-04-22T10:21:27;214.15;;;167.15;;
10633;SDS011;5365;51.640;8.106;2023-04-22T10:24:33;215.07;;;169.10;;
10633;SDS011;5365;51.640;8.106;2023-04-22T10:27:33;216.68;;;173.57;;
10633;SDS011;5365;51.640;8.106;2023-04-22T10:30:34;216.73;;;175.20;;
10633;SDS011;5365;51.640;8.106;2023-04-22T10:33:35;217.95;;;176.95;;
10633;SDS011;5365;51.640;8.106;2023-04-22T10:36:51;223.13;;;188.38;;
10633;SDS011;5365;51.640;8.106;2023-04-22T10:43:35;226.43;;;202.02;;
10633;SDS011;5365;51.640;8.106;2023-04-22T10:49:41;315.02;;;287.35;;
10633;SDS011;5365;51.640;8.106;2023-04-22T10:56:09;307.15;;;279.75;;
10633;SDS011;5365;51.640;8.106;2023-04-22T10:59:15;312.63;;;284.70;;
10633;SDS011;5365;51.640;8.106;2023-04-22T11:02:16;297.52;;;270.13;;
10633;SDS011;5365;51.640;8.106;2023-04-22T11:05:21;284.75;;;258.55;;
10633;SDS011;5365;51.640;8.106;2023-04-22T11:08:24;289.80;;;263.40;;
10633;SDS011;5365;51.640;8.106;2023-04-22T11:11:27;275.77;;;249.90;;
10633;SDS011;5365;51.640;8.106;2023-04-22T11:14:27;287.37;;;261.03;;
10633;SDS011;5365;51.640;8.106;2023-04-22T11:17:27;297.98;;;271.52;;
10633;SDS011;5365;51.640;8.106;2023-04-22T11:20:29;299.98;;;273.25;;
10633;SDS011;5365;51.640;8.106;2023-04-22T11:23:30;325.55;;;298.25;;
10633;SDS011;5365;51.640;8.106;2023-04-22T11:26:33;339.20;;;311.37;;
10633;SDS011;5365;51.640;8.106;2023-04-22T11:29:34;376.58;;;347.80;;
10633;SDS011;5365;51.640;8.106;2023-04-22T11:32:35;355.92;;;327.63;;
10633;SDS011;5365;51.640;8.106;2023-04-22T11:35:35;444.58;;;413.95;;
10633;SDS011;5365;51.640;8.106;2023-04-22T11:38:37;453.83;;;422.80;;
10633;SDS011;5365;51.640;8.106;2023-04-22T11:41:39;511.93;;;479.20;;
10633;SDS011;5365;51.640;8.106;2023-04-22T11:44:39;475.58;;;444.33;;
10633;SDS011;5365;51.640;8.106;2023-04-22T11:47:43;478.45;;;447.25;;
10633;SDS011;5365;51.640;8.106;2023-04-22T11:50:46;521.53;;;488.98;;
10633;SDS011;5365;51.640;8.106;2023-04-22T11:53:50;517.83;;;485.52;;
10633;SDS011;5365;51.640;8.106;2023-04-22T11:56:50;478.85;;;447.65;;
10633;SDS011;5365;51.640;8.106;2023-04-22T11:59:56;437.57;;;407.27;;
10633;SDS011;5365;51.640;8.106;2023-04-22T12:03:11;416.40;;;386.60;;
10633;SDS011;5365;51.640;8.106;2023-04-22T12:06:11;397.10;;;367.50;;
10633;SDS011;5365;51.640;8.106;2023-04-22T12:09:12;354.40;;;326.15;;
10633;SDS011;5365;51.640;8.106;2023-04-22T12:12:12;363.88;;;335.10;;
10633;SDS011;5365;51.640;8.106;2023-04-22T12:15:13;334.75;;;306.73;;
10633;SDS011;5365;51.640;8.106;2023-04-22T12:18:14;323.50;;;295.80;;
10633;SDS011;5365;51.640;8.106;2023-04-22T12:21:17;310.77;;;283.25;;
10633;SDS011;5365;51.640;8.106;2023-04-22T12:24:17;294.92;;;267.65;;
10633;SDS011;5365;51.640;8.106;2023-04-22T12:27:21;269.92;;;243.48;;
10633;SDS011;5365;51.640;8.106;2023-04-22T12:30:21;277.48;;;251.07;;
10633;SDS011;5365;51.640;8.106;2023-04-22T12:33:23;272.73;;;246.45;;
10633;SDS011;5365;51.640;8.106;2023-04-22T12:36:23;264.15;;;237.85;;
10633;SDS011;5365;51.640;8.106;2023-04-22T12:39:25;264.50;;;238.55;;
10633;SDS011;5365;51.640;8.106;2023-04-22T12:42:25;264.58;;;238.38;;
10633;SDS011;5365;51.640;8.106;2023-04-22T12:45:25;291.25;;;263.45;;
10633;SDS011;5365;51.640;8.106;2023-04-22T12:48:25;278.73;;;251.85;;
10633;SDS011;5365;51.640;8.106;2023-04-22T12:51:26;283.85;;;256.67;;
10633;SDS011;5365;51.640;8.106;2023-04-22T12:54:26;262.53;;;235.37;;
10633;SDS011;5365;51.640;8.106;2023-04-22T12:57:26;264.97;;;238.13;;
10633;SDS011;5365;51.640;8.106;2023-04-22T13:00:27;247.70;;;221.20;;
10633;SDS011;5365;51.640;8.106;2023-04-22T13:03:27;234.40;;;196.27;;
10633;SDS011;5365;51.640;8.106;2023-04-22T13:06:27;238.17;;;205.17;;
10633;SDS011;5365;51.640;8.106;2023-04-22T13:09:28;240.73;;;214.40;;
10633;SDS011;5365;51.640;8.106;2023-04-22T13:12:28;237.70;;;210.50;;
10633;SDS011;5365;51.640;8.106;2023-04-22T13:15:28;248.07;;;221.63;;
10633;SDS011;5365;51.640;8.106;2023-04-22T13:18:29;273.38;;;246.40;;
10633;SDS011;5365;51.640;8.106;2023-04-22T13:21:29;290.77;;;263.50;;
10633;SDS011;5365;51.640;8.106;2023-04-22T13:24:30;310.40;;;282.77;;
10633;SDS011;5365;51.640;8.106;2023-04-22T13:27:31;296.38;;;269.17;;
10633;SDS011;5365;51.640;8.106;2023-04-22T13:30:31;254.93;;;228.95;;
10633;SDS011;5365;51.640;8.106;2023-04-22T13:33:31;310.38;;;282.67;;
10633;SDS011;5365;51.640;8.106;2023-04-22T13:36:32;310.67;;;282.98;;
10633;SDS011;5365;51.640;8.106;2023-04-22T13:39:32;282.95;;;256.30;;
10633;SDS011;5365;51.640;8.106;2023-04-22T13:42:32;280.85;;;254.13;;
10633;SDS011;5365;51.640;8.106;2023-04-22T13:45:33;270.60;;;243.88;;
10633;SDS011;5365;51.640;8.106;2023-04-22T13:48:33;276.35;;;249.52;;
10633;SDS011;5365;51.640;8.106;2023-04-22T13:51:33;287.75;;;260.40;;
10633;SDS011;5365;51.640;8.106;2023-04-22T13:54:34;274.10;;;247.20;;
10633;SDS011;5365;51.640;8.106;2023-04-22T13:57:35;258.73;;;232.33;;
10633;SDS011;5365;51.640;8.106;2023-04-22T14:00:35;260.30;;;233.87;;
10633;SDS011;5365;51.640;8.106;2023-04-22T14:03:35;245.77;;;219.63;;
10633;SDS011;5365;51.640;8.106;2023-04-22T14:06:35;245.55;;;219.43;;
10633;SDS011;5365;51.640;8.106;2023-04-22T14:09:36;260.90;;;234.50;;
10633;SDS011;5365;51.640;8.106;2023-04-22T14:12:36;241.40;;;215.50;;
10633;SDS011;5365;51.640;8.106;2023-04-22T14:15:37;250.63;;;224.27;;
10633;SDS011;5365;51.640;8.106;2023-04-22T14:18:37;244.45;;;218.38;;
10633;SDS011;5365;51.640;8.106;2023-04-22T14:21:38;265.92;;;239.38;;
10633;SDS011;5365;51.640;8.106;2023-04-22T14:24:38;254.45;;;228.20;;
10633;SDS011;5365;51.640;8.106;2023-04-22T14:27:40;273.20;;;246.57;;
10633;SDS011;5365;51.640;8.106;2023-04-22T14:30:40;283.05;;;255.93;;
10633;SDS011;5365;51.640;8.106;2023-04-22T14:33:41;278.23;;;251.23;;
10633;SDS011;5365;51.640;8.106;2023-04-22T14:36:41;272.63;;;245.75;;
10633;SDS011;5365;51.640;8.106;2023-04-22T14:39:41;310.60;;;282.52;;
10633;SDS011;5365;51.640;8.106;2023-04-22T14:42:41;292.65;;;265.13;;
10633;SDS011;5365;51.640;8.106;2023-04-22T14:45:42;291.57;;;263.80;;
10633;SDS011;5365;51.640;8.106;2023-04-22T14:48:42;276.13;;;249.03;;
10633;SDS011;5365;51.640;8.106;2023-04-22T14:51:42;284.20;;;256.27;;
10633;SDS011;5365;51.640;8.106;2023-04-22T14:54:42;284.53;;;256.73;;
10633;SDS011;5365;51.640;8.106;2023-04-22T14:57:43;259.50;;;232.40;;
10633;SDS011;5365;51.640;8.106;2023-04-22T15:00:43;252.83;;;225.77;;
10633;SDS011;5365;51.640;8.106;2023-04-22T15:03:43;239.27;;;199.33;;
10633;SDS011;5365;51.640;8.106;2023-04-22T15:06:43;237.33;;;191.47;;
10633;SDS011;5365;51.640;8.106;2023-04-22T15:09:44;241.77;;;212.67;;
10633;SDS011;5365;51.640;8.106;2023-04-22T15:12:44;240.40;;;193.60;;
10633;SDS011;5365;51.640;8.106;2023-04-22T15:15:44;236.73;;;181.73;;
10633;SDS011;5365;51.640;8.106;2023-04-22T15:18:44;238.20;;;181.80;;
10633;SDS011;5365;51.640;8.106;2023-04-22T15:21:45;229.50;;;154.00;;
10633;SDS011;5365;51.640;8.106;2023-04-22T15:24:45;232.10;;;172.67;;
10633;SDS011;5365;51.640;8.106;2023-04-22T15:27:46;234.67;;;171.87;;
10633;SDS011;5365;51.640;8.106;2023-04-22T15:30:46;234.13;;;169.20;;
10633;SDS011;5365;51.640;8.106;2023-04-22T15:33:49;230.77;;;159.60;;
10633;SDS011;5365;51.640;8.106;2023-04-22T15:36:49;253.80;;;206.60;;
10633;SDS011;5365;51.640;8.106;2023-04-22T15:39:49;246.47;;;178.17;;
10633;SDS011;5365;51.640;8.106;2023-04-22T15:42:49;231.63;;;150.47;;
10633;SDS011;5365;51.640;8.106;2023-04-22T15:45:49;226.07;;;135.07;;
10633;SDS011;5365;51.640;8.106;2023-04-22T15:48:50;221.37;;;127.87;;
10633;SDS011;5365;51.640;8.106;2023-04-22T15:51:50;209.97;;;104.03;;
10633;SDS011;5365;51.640;8.106;2023-04-22T15:54:51;214.73;;;114.70;;
10633;SDS011;5365;51.640;8.106;2023-04-22T15:57:51;214.77;;;116.47;;
10633;SDS011;5365;51.640;8.106;2023-04-22T16:00:51;214.37;;;112.77;;
10633;SDS011;5365;51.640;8.106;2023-04-22T16:03:51;215.00;;;111.20;;
10633;SDS011;5365;51.640;8.106;2023-04-22T16:06:51;214.10;;;115.30;;
10633;SDS011;5365;51.640;8.106;2023-04-22T16:09:52;214.17;;;112.83;;
10633;SDS011;5365;51.640;8.106;2023-04-22T16:12:52;217.20;;;113.17;;
10633;SDS011;5365;51.640;8.106;2023-04-22T16:15:52;214.23;;;111.00;;
10633;SDS011;5365;51.640;8.106;2023-04-22T16:18:52;218.00;;;112.13;;
10633;SDS011;5365;51.640;8.106;2023-04-22T16:21:53;215.93;;;106.10;;
10633;SDS011;5365;51.640;8.106;2023-04-22T16:24:54;216.47;;;110.07;;
10633;SDS011;5365;51.640;8.106;2023-04-22T16:27:55;214.03;;;104.13;;
10633;SDS011;5365;51.640;8.106;2023-04-22T16:30:55;219.17;;;110.57;;
10633;SDS011;5365;51.640;8.106;2023-04-22T16:33:55;218.50;;;105.90;;
10633;SDS011;5365;51.640;8.106;2023-04-22T16:36:55;216.73;;;101.80;;
10633;SDS011;5365;51.640;8.106;2023-04-22T16:39:55;212.10;;;95.10;;
10633;SDS011;5365;51.640;8.106;2023-04-22T16:42:56;213.40;;;98.53;;
10633;SDS011;5365;51.640;8.106;2023-04-22T16:46:01;217.90;;;98.73;;
10633;SDS011;5365;51.640;8.106;2023-04-22T16:49:02;216.73;;;98.27;;
10633;SDS011;5365;51.640;8.106;2023-04-22T16:52:03;217.20;;;102.93;;
10633;SDS011;5365;51.640;8.106;2023-04-22T16:55:03;216.33;;;100.73;;
10633;SDS011;5365;51.640;8.106;2023-04-22T16:58:04;216.60;;;101.90;;
10633;SDS011;5365;51.640;8.106;2023-04-22T17:01:04;211.50;;;92.67;;
10633;SDS011;5365;51.640;8.106;2023-04-22T17:04:04;214.23;;;86.27;;
10633;SDS011;5365;51.640;8.106;2023-04-22T17:07:05;212.87;;;93.67;;
10633;SDS011;5365;51.640;8.106;2023-04-22T17:10:05;211.70;;;92.80;;
10633;SDS011;5365;51.640;8.106;2023-04-22T17:13:06;208.90;;;84.23;;
10633;SDS011;5365;51.640;8.106;2023-04-22T17:16:06;210.30;;;91.07;;
10633;SDS011;5365;51.640;8.106;2023-04-22T17:19:08;210.60;;;83.73;;
10633;SDS011;5365;51.640;8.106;2023-04-22T17:22:08;209.40;;;89.20;;
10633;SDS011;5365;51.640;8.106;2023-04-22T17:25:08;207.67;;;86.50;;
10633;SDS011;5365;51.640;8.106;2023-04-22T17:28:08;210.23;;;88.47;;
10633;SDS011;5365;51.640;8.106;2023-04-22T17:31:10;208.27;;;84.63;;
10633;SDS011;5365;51.640;8.106;2023-04-22T17:34:10;208.70;;;79.60;;
10633;SDS011;5365;51.640;8.106;2023-04-22T17:37:10;208.95;;;79.60;;
10633;SDS011;5365;51.640;8.106;2023-04-22T17:40:11;213.17;;;91.50;;